Weather at Whitaker Ultralightport

Public forecast

Using degrees Fahrenheit for public forecast. Weather courtesy of forecast.io.

Closest aviation weather report (METAR) to Whitaker Ultralightport

Closest report is St Landry Parish Ahart Field, 7.0 nm (13.0 km) ESE. Retrieved 2020/10/29 08:35 UTC (0 seconds ago):

KOPL 290835Z AUTO 30007KT 10SM SCT010 10/07 A2989 RMK AO2 T00960071

Closest aviation forecast (TAF) to Whitaker Ultralightport

Closest forecast is Lafayette Regional Airport, 26.2 nm (48.5 km) SSE. Retrieved 2020/10/29 06:22 UTC (2 hours ago):

TAF KLFT 290520Z 2906/3006 29010KT P6SM -DZ FEW013 BKN045 OVC070 TEMPO 2906/2909 BKN013 BKN025 OVC035 FM290900 30010KT P6SM -DZ FEW017 SCT029 FM291000 30011G15KT P6SM FEW029 FEW100 FM291300 31015G22KT P6SM SKC FM300000 33010KT P6SM SKC